sensor_id;sensor_type;location;lat;lon;timestamp;P1;durP1;ratioP1;P2;durP2;ratioP2
33427;SDS011;19769;48.150;16.306;2022-08-21T00:00:07;4.80;;;3.38;;
33427;SDS011;19769;48.150;16.306;2022-08-21T00:02:42;3.70;;;3.40;;
33427;SDS011;19769;48.150;16.306;2022-08-21T00:05:09;3.60;;;3.28;;
33427;SDS011;19769;48.150;16.306;2022-08-21T00:07:35;3.78;;;3.30;;
33427;SDS011;19769;48.150;16.306;2022-08-21T00:10:02;3.95;;;2.97;;
33427;SDS011;19769;48.150;16.306;2022-08-21T00:12:29;3.90;;;3.50;;
33427;SDS011;19769;48.150;16.306;2022-08-21T00:14:56;4.00;;;3.03;;
33427;SDS011;19769;48.150;16.306;2022-08-21T00:17:22;3.50;;;3.20;;
33427;SDS011;19769;48.150;16.306;2022-08-21T00:19:48;3.53;;;3.22;;
33427;SDS011;19769;48.150;16.306;2022-08-21T00:22:14;3.50;;;3.20;;
33427;SDS011;19769;48.150;16.306;2022-08-21T00:24:41;3.80;;;3.40;;
33427;SDS011;19769;48.150;16.306;2022-08-21T00:27:07;3.85;;;3.28;;
33427;SDS011;19769;48.150;16.306;2022-08-21T00:29:33;3.75;;;3.15;;
33427;SDS011;19769;48.150;16.306;2022-08-21T00:31:59;4.25;;;3.53;;
33427;SDS011;19769;48.150;16.306;2022-08-21T00:34:25;4.05;;;3.50;;
33427;SDS011;19769;48.150;16.306;2022-08-21T00:36:51;3.88;;;3.47;;
33427;SDS011;19769;48.150;16.306;2022-08-21T00:39:17;4.53;;;3.80;;
33427;SDS011;19769;48.150;16.306;2022-08-21T00:41:44;6.15;;;4.10;;
33427;SDS011;19769;48.150;16.306;2022-08-21T00:44:11;4.25;;;3.85;;
33427;SDS011;19769;48.150;16.306;2022-08-21T00:46:38;4.75;;;4.10;;
33427;SDS011;19769;48.150;16.306;2022-08-21T00:49:05;3.97;;;3.58;;
33427;SDS011;19769;48.150;16.306;2022-08-21T00:51:38;5.05;;;4.20;;
33427;SDS011;19769;48.150;16.306;2022-08-21T00:54:05;4.18;;;3.78;;
33427;SDS011;19769;48.150;16.306;2022-08-21T00:56:32;5.00;;;4.22;;
33427;SDS011;19769;48.150;16.306;2022-08-21T00:58:59;5.47;;;3.90;;
33427;SDS011;19769;48.150;16.306;2022-08-21T01:01:25;4.88;;;4.03;;
33427;SDS011;19769;48.150;16.306;2022-08-21T01:03:52;4.60;;;4.10;;
33427;SDS011;19769;48.150;16.306;2022-08-21T01:06:18;4.25;;;3.85;;
33427;SDS011;19769;48.150;16.306;2022-08-21T01:08:45;4.97;;;4.22;;
33427;SDS011;19769;48.150;16.306;2022-08-21T01:11:12;4.32;;;3.88;;
33427;SDS011;19769;48.150;16.306;2022-08-21T01:13:38;4.90;;;4.22;;
33427;SDS011;19769;48.150;16.306;2022-08-21T01:16:11;4.97;;;4.40;;
33427;SDS011;19769;48.150;16.306;2022-08-21T01:18:38;4.65;;;4.25;;
33427;SDS011;19769;48.150;16.306;2022-08-21T01:23:34;5.55;;;5.00;;
33427;SDS011;19769;48.150;16.306;2022-08-21T01:26:01;5.63;;;4.50;;
33427;SDS011;19769;48.150;16.306;2022-08-21T01:28:28;5.00;;;4.50;;
33427;SDS011;19769;48.150;16.306;2022-08-21T01:30:56;5.20;;;4.68;;
33427;SDS011;19769;48.150;16.306;2022-08-21T01:33:24;5.40;;;4.90;;
33427;SDS011;19769;48.150;16.306;2022-08-21T01:35:50;6.22;;;4.47;;
33427;SDS011;19769;48.150;16.306;2022-08-21T01:38:16;5.35;;;4.70;;
33427;SDS011;19769;48.150;16.306;2022-08-21T01:40:43;5.10;;;4.60;;
33427;SDS011;19769;48.150;16.306;2022-08-21T01:43:09;5.00;;;4.30;;
33427;SDS011;19769;48.150;16.306;2022-08-21T01:45:35;5.63;;;4.50;;
33427;SDS011;19769;48.150;16.306;2022-08-21T01:48:02;4.78;;;4.32;;
33427;SDS011;19769;48.150;16.306;2022-08-21T01:50:28;5.15;;;4.60;;
33427;SDS011;19769;48.150;16.306;2022-08-21T01:52:54;5.25;;;4.75;;
33427;SDS011;19769;48.150;16.306;2022-08-21T01:55:21;5.93;;;4.50;;
33427;SDS011;19769;48.150;16.306;2022-08-21T01:57:47;5.45;;;4.65;;
33427;SDS011;19769;48.150;16.306;2022-08-21T02:00:14;5.10;;;4.60;;
33427;SDS011;19769;48.150;16.306;2022-08-21T02:02:41;5.38;;;4.88;;
33427;SDS011;19769;48.150;16.306;2022-08-21T02:05:08;5.38;;;4.85;;
33427;SDS011;19769;48.150;16.306;2022-08-21T02:07:36;6.22;;;4.97;;
33427;SDS011;19769;48.150;16.306;2022-08-21T02:10:03;5.30;;;4.80;;
33427;SDS011;19769;48.150;16.306;2022-08-21T02:12:30;6.53;;;5.32;;
33427;SDS011;19769;48.150;16.306;2022-08-21T02:14:57;5.13;;;4.63;;
33427;SDS011;19769;48.150;16.306;2022-08-21T02:17:23;5.10;;;4.50;;
33427;SDS011;19769;48.150;16.306;2022-08-21T02:19:49;5.20;;;4.70;;
33427;SDS011;19769;48.150;16.306;2022-08-21T02:22:15;5.25;;;4.55;;
33427;SDS011;19769;48.150;16.306;2022-08-21T02:24:41;5.20;;;4.57;;
33427;SDS011;19769;48.150;16.306;2022-08-21T02:27:08;4.97;;;4.47;;
33427;SDS011;19769;48.150;16.306;2022-08-21T02:29:34;5.40;;;4.90;;
33427;SDS011;19769;48.150;16.306;2022-08-21T02:32:00;6.10;;;5.13;;
33427;SDS011;19769;48.150;16.306;2022-08-21T02:34:27;7.03;;;5.30;;
33427;SDS011;19769;48.150;16.306;2022-08-21T02:36:53;6.35;;;5.70;;
33427;SDS011;19769;48.150;16.306;2022-08-21T02:39:19;6.32;;;5.47;;
33427;SDS011;19769;48.150;16.306;2022-08-21T02:41:45;6.50;;;5.75;;
33427;SDS011;19769;48.150;16.306;2022-08-21T02:44:11;6.28;;;5.68;;
33427;SDS011;19769;48.150;16.306;2022-08-21T02:46:37;6.43;;;5.70;;
33427;SDS011;19769;48.150;16.306;2022-08-21T02:49:03;6.78;;;5.93;;
33427;SDS011;19769;48.150;16.306;2022-08-21T02:51:29;6.72;;;6.05;;
33427;SDS011;19769;48.150;16.306;2022-08-21T02:53:55;7.40;;;5.97;;
33427;SDS011;19769;48.150;16.306;2022-08-21T02:56:22;6.95;;;6.22;;
33427;SDS011;19769;48.150;16.306;2022-08-21T02:58:49;6.43;;;5.82;;
33427;SDS011;19769;48.150;16.306;2022-08-21T03:01:17;7.18;;;6.45;;
33427;SDS011;19769;48.150;16.306;2022-08-21T03:03:44;7.63;;;5.78;;
33427;SDS011;19769;48.150;16.306;2022-08-21T03:06:12;6.22;;;5.30;;
33427;SDS011;19769;48.150;16.306;2022-08-21T03:08:38;5.47;;;4.97;;
33427;SDS011;19769;48.150;16.306;2022-08-21T03:11:05;6.30;;;4.55;;
33427;SDS011;19769;48.150;16.306;2022-08-21T03:13:31;4.22;;;3.83;;
33427;SDS011;19769;48.150;16.306;2022-08-21T03:15:58;4.85;;;3.75;;
33427;SDS011;19769;48.150;16.306;2022-08-21T03:18:24;4.25;;;3.40;;
33427;SDS011;19769;48.150;16.306;2022-08-21T03:20:51;3.40;;;3.08;;
33427;SDS011;19769;48.150;16.306;2022-08-21T03:23:17;4.35;;;3.70;;
33427;SDS011;19769;48.150;16.306;2022-08-21T03:25:44;4.20;;;3.80;;
33427;SDS011;19769;48.150;16.306;2022-08-21T03:28:12;4.03;;;3.60;;
33427;SDS011;19769;48.150;16.306;2022-08-21T03:30:38;4.30;;;3.72;;
33427;SDS011;19769;48.150;16.306;2022-08-21T03:33:05;4.38;;;3.97;;
33427;SDS011;19769;48.150;16.306;2022-08-21T03:35:31;4.03;;;3.63;;
33427;SDS011;19769;48.150;16.306;2022-08-21T03:37:57;4.57;;;3.75;;
33427;SDS011;19769;48.150;16.306;2022-08-21T03:40:23;3.55;;;3.25;;
33427;SDS011;19769;48.150;16.306;2022-08-21T03:42:50;3.47;;;3.17;;
33427;SDS011;19769;48.150;16.306;2022-08-21T03:45:17;3.33;;;2.95;;
33427;SDS011;19769;48.150;16.306;2022-08-21T03:47:57;2.97;;;2.67;;
33427;SDS011;19769;48.150;16.306;2022-08-21T03:50:24;2.90;;;2.60;;
33427;SDS011;19769;48.150;16.306;2022-08-21T03:52:51;3.47;;;2.45;;
33427;SDS011;19769;48.150;16.306;2022-08-21T03:55:17;3.15;;;2.60;;
33427;SDS011;19769;48.150;16.306;2022-08-21T03:57:43;2.60;;;2.33;;
33427;SDS011;19769;48.150;16.306;2022-08-21T04:00:10;2.70;;;2.25;;
33427;SDS011;19769;48.150;16.306;2022-08-21T04:02:37;2.55;;;2.10;;
33427;SDS011;19769;48.150;16.306;2022-08-21T04:05:04;2.45;;;1.80;;
33427;SDS011;19769;48.150;16.306;2022-08-21T04:07:30;2.40;;;1.80;;
33427;SDS011;19769;48.150;16.306;2022-08-21T04:09:56;2.40;;;2.00;;
33427;SDS011;19769;48.150;16.306;2022-08-21T04:12:23;2.58;;;2.00;;
33427;SDS011;19769;48.150;16.306;2022-08-21T04:14:49;1.98;;;1.60;;
33427;SDS011;19769;48.150;16.306;2022-08-21T04:17:16;3.17;;;1.90;;
33427;SDS011;19769;48.150;16.306;2022-08-21T04:19:43;2.35;;;1.90;;
33427;SDS011;19769;48.150;16.306;2022-08-21T04:22:09;2.03;;;1.70;;
33427;SDS011;19769;48.150;16.306;2022-08-21T04:24:35;2.05;;;1.75;;
33427;SDS011;19769;48.150;16.306;2022-08-21T04:27:02;2.35;;;2.00;;
33427;SDS011;19769;48.150;16.306;2022-08-21T04:29:28;2.28;;;1.90;;
33427;SDS011;19769;48.150;16.306;2022-08-21T04:31:54;2.17;;;1.88;;
33427;SDS011;19769;48.150;16.306;2022-08-21T04:34:20;2.50;;;2.05;;
33427;SDS011;19769;48.150;16.306;2022-08-21T04:36:46;2.13;;;1.88;;
33427;SDS011;19769;48.150;16.306;2022-08-21T04:39:12;2.35;;;2.00;;
33427;SDS011;19769;48.150;16.306;2022-08-21T04:41:38;2.60;;;2.17;;
33427;SDS011;19769;48.150;16.306;2022-08-21T04:44:06;2.70;;;2.10;;
33427;SDS011;19769;48.150;16.306;2022-08-21T04:46:33;2.50;;;2.20;;
33427;SDS011;19769;48.150;16.306;2022-08-21T04:48:59;2.70;;;2.38;;
33427;SDS011;19769;48.150;16.306;2022-08-21T04:51:28;2.60;;;2.25;;
33427;SDS011;19769;48.150;16.306;2022-08-21T04:53:59;3.50;;;2.30;;
33427;SDS011;19769;48.150;16.306;2022-08-21T04:56:27;2.40;;;2.20;;
33427;SDS011;19769;48.150;16.306;2022-08-21T04:58:57;2.80;;;2.08;;
33427;SDS011;19769;48.150;16.306;2022-08-21T05:01:24;3.75;;;1.90;;
33427;SDS011;19769;48.150;16.306;2022-08-21T05:03:52;2.80;;;2.17;;
33427;SDS011;19769;48.150;16.306;2022-08-21T05:06:20;3.13;;;2.00;;
33427;SDS011;19769;48.150;16.306;2022-08-21T05:08:47;3.75;;;2.35;;
33427;SDS011;19769;48.150;16.306;2022-08-21T05:11:14;4.32;;;2.22;;
33427;SDS011;19769;48.150;16.306;2022-08-21T05:13:40;2.78;;;2.47;;
33427;SDS011;19769;48.150;16.306;2022-08-21T05:16:07;3.28;;;2.55;;
33427;SDS011;19769;48.150;16.306;2022-08-21T05:18:33;2.92;;;2.53;;
33427;SDS011;19769;48.150;16.306;2022-08-21T05:20:59;2.80;;;2.50;;
33427;SDS011;19769;48.150;16.306;2022-08-21T05:23:25;3.22;;;2.70;;
33427;SDS011;19769;48.150;16.306;2022-08-21T05:25:52;3.35;;;2.75;;
33427;SDS011;19769;48.150;16.306;2022-08-21T05:28:18;3.22;;;2.92;;
33427;SDS011;19769;48.150;16.306;2022-08-21T05:30:45;3.38;;;2.97;;
33427;SDS011;19769;48.150;16.306;2022-08-21T05:33:11;3.40;;;2.90;;
33427;SDS011;19769;48.150;16.306;2022-08-21T05:35:38;3.53;;;3.10;;
33427;SDS011;19769;48.150;16.306;2022-08-21T05:38:05;3.90;;;3.08;;
33427;SDS011;19769;48.150;16.306;2022-08-21T05:40:32;3.45;;;3.05;;
33427;SDS011;19769;48.150;16.306;2022-08-21T05:42:58;3.92;;;2.75;;
33427;SDS011;19769;48.150;16.306;2022-08-21T05:45:26;3.08;;;2.78;;
33427;SDS011;19769;48.150;16.306;2022-08-21T05:47:52;3.80;;;2.80;;
33427;SDS011;19769;48.150;16.306;2022-08-21T05:50:19;3.30;;;2.90;;
33427;SDS011;19769;48.150;16.306;2022-08-21T05:52:45;3.53;;;2.60;;
33427;SDS011;19769;48.150;16.306;2022-08-21T05:55:11;4.03;;;2.90;;
33427;SDS011;19769;48.150;16.306;2022-08-21T05:57:38;2.75;;;2.47;;
33427;SDS011;19769;48.150;16.306;2022-08-21T06:00:06;3.53;;;2.90;;
33427;SDS011;19769;48.150;16.306;2022-08-21T06:02:38;3.10;;;2.75;;
33427;SDS011;19769;48.150;16.306;2022-08-21T06:05:05;3.00;;;2.70;;
33427;SDS011;19769;48.150;16.306;2022-08-21T06:07:31;3.58;;;3.00;;
33427;SDS011;19769;48.150;16.306;2022-08-21T06:09:57;3.25;;;2.55;;
33427;SDS011;19769;48.150;16.306;2022-08-21T06:12:24;3.38;;;2.97;;
33427;SDS011;19769;48.150;16.306;2022-08-21T06:14:50;3.40;;;3.00;;
33427;SDS011;19769;48.150;16.306;2022-08-21T06:17:17;3.00;;;2.65;;
33427;SDS011;19769;48.150;16.306;2022-08-21T06:19:44;3.00;;;2.63;;
33427;SDS011;19769;48.150;16.306;2022-08-21T06:22:10;3.00;;;2.70;;
33427;SDS011;19769;48.150;16.306;2022-08-21T06:24:36;3.13;;;2.70;;
33427;SDS011;19769;48.150;16.306;2022-08-21T06:27:04;3.35;;;2.80;;
33427;SDS011;19769;48.150;16.306;2022-08-21T06:29:30;4.00;;;2.90;;
33427;SDS011;19769;48.150;16.306;2022-08-21T06:31:56;3.83;;;2.90;;
33427;SDS011;19769;48.150;16.306;2022-08-21T06:34:22;3.22;;;2.92;;
33427;SDS011;19769;48.150;16.306;2022-08-21T06:36:48;3.40;;;2.85;;
33427;SDS011;19769;48.150;16.306;2022-08-21T06:39:14;3.15;;;2.85;;
33427;SDS011;19769;48.150;16.306;2022-08-21T06:41:41;3.40;;;3.03;;
33427;SDS011;19769;48.150;16.306;2022-08-21T06:44:07;3.55;;;3.25;;
33427;SDS011;19769;48.150;16.306;2022-08-21T06:46:33;3.70;;;3.30;;
33427;SDS011;19769;48.150;16.306;2022-08-21T06:48:59;3.75;;;3.38;;
33427;SDS011;19769;48.150;16.306;2022-08-21T06:51:25;3.40;;;3.10;;
33427;SDS011;19769;48.150;16.306;2022-08-21T06:53:52;3.60;;;2.90;;
33427;SDS011;19769;48.150;16.306;2022-08-21T06:56:18;3.35;;;3.05;;
33427;SDS011;19769;48.150;16.306;2022-08-21T06:58:44;3.38;;;3.08;;
33427;SDS011;19769;48.150;16.306;2022-08-21T07:01:11;3.72;;;3.33;;
33427;SDS011;19769;48.150;16.306;2022-08-21T07:03:38;3.78;;;3.15;;
33427;SDS011;19769;48.150;16.306;2022-08-21T07:06:05;3.55;;;3.08;;
33427;SDS011;19769;48.150;16.306;2022-08-21T07:08:32;4.60;;;3.40;;
33427;SDS011;19769;48.150;16.306;2022-08-21T07:10:59;3.28;;;2.97;;
33427;SDS011;19769;48.150;16.306;2022-08-21T07:13:26;3.97;;;3.50;;
33427;SDS011;19769;48.150;16.306;2022-08-21T07:15:52;3.67;;;3.25;;
33427;SDS011;19769;48.150;16.306;2022-08-21T07:18:18;4.10;;;3.60;;
33427;SDS011;19769;48.150;16.306;2022-08-21T07:20:44;4.88;;;3.30;;
33427;SDS011;19769;48.150;16.306;2022-08-21T07:23:18;3.72;;;3.30;;
33427;SDS011;19769;48.150;16.306;2022-08-21T07:25:48;3.90;;;3.40;;
33427;SDS011;19769;48.150;16.306;2022-08-21T07:28:14;3.90;;;3.50;;
33427;SDS011;19769;48.150;16.306;2022-08-21T07:30:40;5.22;;;3.50;;
33427;SDS011;19769;48.150;16.306;2022-08-21T07:33:06;4.28;;;3.60;;
33427;SDS011;19769;48.150;16.306;2022-08-21T07:35:32;4.10;;;3.35;;
33427;SDS011;19769;48.150;16.306;2022-08-21T07:37:59;5.95;;;3.47;;
33427;SDS011;19769;48.150;16.306;2022-08-21T07:40:25;3.40;;;3.10;;
33427;SDS011;19769;48.150;16.306;2022-08-21T07:42:51;3.58;;;3.28;;
33427;SDS011;19769;48.150;16.306;2022-08-21T07:45:20;4.68;;;3.38;;
33427;SDS011;19769;48.150;16.306;2022-08-21T07:47:49;4.43;;;3.58;;
33427;SDS011;19769;48.150;16.306;2022-08-21T07:50:15;3.97;;;3.58;;
33427;SDS011;19769;48.150;16.306;2022-08-21T07:52:42;3.78;;;3.33;;
33427;SDS011;19769;48.150;16.306;2022-08-21T07:55:09;4.53;;;4.03;;
33427;SDS011;19769;48.150;16.306;2022-08-21T07:57:36;3.92;;;3.53;;
33427;SDS011;19769;48.150;16.306;2022-08-21T08:00:06;4.38;;;3.80;;
33427;SDS011;19769;48.150;16.306;2022-08-21T08:02:37;4.55;;;3.72;;
33427;SDS011;19769;48.150;16.306;2022-08-21T08:05:06;5.28;;;3.40;;
33427;SDS011;19769;48.150;16.306;2022-08-21T08:07:33;3.75;;;3.35;;
33427;SDS011;19769;48.150;16.306;2022-08-21T08:10:01;3.90;;;3.30;;
33427;SDS011;19769;48.150;16.306;2022-08-21T08:12:27;4.03;;;3.50;;
33427;SDS011;19769;48.150;16.306;2022-08-21T08:14:58;3.50;;;3.20;;
33427;SDS011;19769;48.150;16.306;2022-08-21T08:17:24;3.47;;;3.17;;
33427;SDS011;19769;48.150;16.306;2022-08-21T08:19:50;3.28;;;2.78;;
33427;SDS011;19769;48.150;16.306;2022-08-21T08:22:18;3.47;;;3.17;;
33427;SDS011;19769;48.150;16.306;2022-08-21T08:24:45;3.50;;;3.15;;
33427;SDS011;19769;48.150;16.306;2022-08-21T08:27:11;3.85;;;3.33;;
33427;SDS011;19769;48.150;16.306;2022-08-21T08:29:37;3.50;;;3.13;;
33427;SDS011;19769;48.150;16.306;2022-08-21T08:32:04;3.17;;;2.88;;
33427;SDS011;19769;48.150;16.306;2022-08-21T08:34:32;3.50;;;3.17;;
33427;SDS011;19769;48.150;16.306;2022-08-21T08:36:59;3.30;;;3.00;;
33427;SDS011;19769;48.150;16.306;2022-08-21T08:39:25;3.50;;;3.05;;
33427;SDS011;19769;48.150;16.306;2022-08-21T08:42:04;3.20;;;2.80;;
33427;SDS011;19769;48.150;16.306;2022-08-21T08:44:31;4.80;;;3.17;;
33427;SDS011;19769;48.150;16.306;2022-08-21T08:46:57;3.63;;;3.28;;
33427;SDS011;19769;48.150;16.306;2022-08-21T08:54:40;3.60;;;3.30;;
33427;SDS011;19769;48.150;16.306;2022-08-21T08:57:09;4.10;;;3.67;;
33427;SDS011;19769;48.150;16.306;2022-08-21T08:59:39;3.58;;;3.28;;
33427;SDS011;19769;48.150;16.306;2022-08-21T09:02:06;4.50;;;3.60;;
33427;SDS011;19769;48.150;16.306;2022-08-21T09:04:34;3.80;;;3.40;;
33427;SDS011;19769;48.150;16.306;2022-08-21T09:15:03;3.65;;;3.28;;
33427;SDS011;19769;48.150;16.306;2022-08-21T09:17:49;3.85;;;2.95;;
33427;SDS011;19769;48.150;16.306;2022-08-21T09:25:24;2.67;;;2.47;;
33427;SDS011;19769;48.150;16.306;2022-08-21T09:27:51;3.38;;;2.75;;
33427;SDS011;19769;48.150;16.306;2022-08-21T09:30:18;3.00;;;2.45;;
33427;SDS011;19769;48.150;16.306;2022-08-21T09:32:45;2.78;;;2.50;;
33427;SDS011;19769;48.150;16.306;2022-08-21T09:35:13;2.70;;;2.40;;
33427;SDS011;19769;48.150;16.306;2022-08-21T09:37:50;2.75;;;2.47;;
33427;SDS011;19769;48.150;16.306;2022-08-21T09:43:03;2.92;;;2.20;;
33427;SDS011;19769;48.150;16.306;2022-08-21T09:45:29;2.60;;;2.30;;
33427;SDS011;19769;48.150;16.306;2022-08-21T09:47:56;2.60;;;2.30;;
33427;SDS011;19769;48.150;16.306;2022-08-21T09:50:24;2.45;;;2.13;;
33427;SDS011;19769;48.150;16.306;2022-08-21T09:52:58;3.00;;;2.55;;
33427;SDS011;19769;48.150;16.306;2022-08-21T09:55:30;2.80;;;2.30;;
33427;SDS011;19769;48.150;16.306;2022-08-21T09:58:16;2.60;;;2.40;;
33427;SDS011;19769;48.150;16.306;2022-08-21T10:00:43;2.78;;;2.47;;
33427;SDS011;19769;48.150;16.306;2022-08-21T10:05:36;2.80;;;2.45;;
33427;SDS011;19769;48.150;16.306;2022-08-21T10:08:03;3.10;;;2.50;;
33427;SDS011;19769;48.150;16.306;2022-08-21T10:10:31;4.68;;;2.97;;
33427;SDS011;19769;48.150;16.306;2022-08-21T10:20:29;3.35;;;2.92;;
33427;SDS011;19769;48.150;16.306;2022-08-21T10:25:23;3.55;;;3.00;;
33427;SDS011;19769;48.150;16.306;2022-08-21T10:40:39;3.13;;;2.75;;
33427;SDS011;19769;48.150;16.306;2022-08-21T10:46:08;3.45;;;2.63;;
33427;SDS011;19769;48.150;16.306;2022-08-21T10:48:47;3.58;;;3.00;;
33427;SDS011;19769;48.150;16.306;2022-08-21T11:01:23;3.33;;;2.80;;
33427;SDS011;19769;48.150;16.306;2022-08-21T11:03:54;3.70;;;3.00;;
33427;SDS011;19769;48.150;16.306;2022-08-21T11:06:31;3.25;;;2.45;;
33427;SDS011;19769;48.150;16.306;2022-08-21T11:09:03;2.60;;;1.90;;
33427;SDS011;19769;48.150;16.306;2022-08-21T11:11:41;2.33;;;2.00;;
33427;SDS011;19769;48.150;16.306;2022-08-21T11:17:00;1.92;;;1.67;;
33427;SDS011;19769;48.150;16.306;2022-08-21T11:21:57;1.60;;;1.50;;
33427;SDS011;19769;48.150;16.306;2022-08-21T11:24:29;1.83;;;1.50;;
33427;SDS011;19769;48.150;16.306;2022-08-21T11:29:41;1.83;;;1.48;;
33427;SDS011;19769;48.150;16.306;2022-08-21T11:37:55;2.85;;;1.50;;
33427;SDS011;19769;48.150;16.306;2022-08-21T11:45:48;1.38;;;1.25;;
33427;SDS011;19769;48.150;16.306;2022-08-21T11:50:57;1.83;;;1.50;;
33427;SDS011;19769;48.150;16.306;2022-08-21T11:53:28;1.92;;;1.50;;
33427;SDS011;19769;48.150;16.306;2022-08-21T11:56:05;2.53;;;1.45;;
33427;SDS011;19769;48.150;16.306;2022-08-21T11:58:40;2.67;;;1.60;;
33427;SDS011;19769;48.150;16.306;2022-08-21T12:01:11;2.00;;;1.50;;
33427;SDS011;19769;48.150;16.306;2022-08-21T12:03:39;1.60;;;1.40;;
33427;SDS011;19769;48.150;16.306;2022-08-21T12:06:08;1.67;;;1.40;;
33427;SDS011;19769;48.150;16.306;2022-08-21T12:13:57;1.70;;;1.30;;
33427;SDS011;19769;48.150;16.306;2022-08-21T12:16:40;1.95;;;1.45;;
33427;SDS011;19769;48.150;16.306;2022-08-21T12:21:33;2.55;;;1.55;;
33427;SDS011;19769;48.150;16.306;2022-08-21T12:26:33;2.60;;;2.28;;
33427;SDS011;19769;48.150;16.306;2022-08-21T12:29:14;2.58;;;1.63;;
33427;SDS011;19769;48.150;16.306;2022-08-21T12:34:36;1.95;;;1.75;;
33427;SDS011;19769;48.150;16.306;2022-08-21T12:37:07;1.83;;;1.48;;
33427;SDS011;19769;48.150;16.306;2022-08-21T12:39:37;2.30;;;1.90;;
33427;SDS011;19769;48.150;16.306;2022-08-21T12:42:24;2.10;;;1.83;;
33427;SDS011;19769;48.150;16.306;2022-08-21T12:44:59;2.60;;;1.67;;
33427;SDS011;19769;48.150;16.306;2022-08-21T12:47:27;2.45;;;2.15;;
33427;SDS011;19769;48.150;16.306;2022-08-21T12:52:29;2.20;;;1.95;;
33427;SDS011;19769;48.150;16.306;2022-08-21T12:54:56;2.83;;;2.05;;
33427;SDS011;19769;48.150;16.306;2022-08-21T12:57:24;2.65;;;1.92;;
33427;SDS011;19769;48.150;16.306;2022-08-21T12:59:58;2.42;;;2.00;;
33427;SDS011;19769;48.150;16.306;2022-08-21T13:02:26;3.80;;;2.30;;
33427;SDS011;19769;48.150;16.306;2022-08-21T13:04:53;2.85;;;2.10;;
33427;SDS011;19769;48.150;16.306;2022-08-21T13:07:29;2.72;;;2.25;;
33427;SDS011;19769;48.150;16.306;2022-08-21T13:09:58;2.30;;;2.10;;
33427;SDS011;19769;48.150;16.306;2022-08-21T13:12:25;2.85;;;2.00;;
33427;SDS011;19769;48.150;16.306;2022-08-21T13:14:52;2.55;;;2.03;;
33427;SDS011;19769;48.150;16.306;2022-08-21T13:17:21;2.50;;;2.00;;
33427;SDS011;19769;48.150;16.306;2022-08-21T13:22:22;2.75;;;2.30;;
33427;SDS011;19769;48.150;16.306;2022-08-21T13:24:49;3.17;;;2.50;;
33427;SDS011;19769;48.150;16.306;2022-08-21T13:27:17;3.88;;;2.53;;
33427;SDS011;19769;48.150;16.306;2022-08-21T13:29:44;4.65;;;2.50;;
33427;SDS011;19769;48.150;16.306;2022-08-21T13:32:13;3.35;;;2.60;;
33427;SDS011;19769;48.150;16.306;2022-08-21T13:34:44;4.20;;;2.60;;
33427;SDS011;19769;48.150;16.306;2022-08-21T13:37:10;2.92;;;2.60;;
33427;SDS011;19769;48.150;16.306;2022-08-21T13:39:37;2.58;;;2.20;;
33427;SDS011;19769;48.150;16.306;2022-08-21T13:42:04;2.85;;;2.30;;
33427;SDS011;19769;48.150;16.306;2022-08-21T13:44:36;3.25;;;2.65;;
33427;SDS011;19769;48.150;16.306;2022-08-21T13:47:03;4.63;;;2.97;;
33427;SDS011;19769;48.150;16.306;2022-08-21T13:49:31;3.65;;;2.80;;
33427;SDS011;19769;48.150;16.306;2022-08-21T13:51:58;3.13;;;2.70;;
33427;SDS011;19769;48.150;16.306;2022-08-21T13:54:25;3.30;;;2.58;;
33427;SDS011;19769;48.150;16.306;2022-08-21T13:56:52;3.25;;;2.45;;
33427;SDS011;19769;48.150;16.306;2022-08-21T14:01:52;4.03;;;2.43;;
33427;SDS011;19769;48.150;16.306;2022-08-21T14:04:34;4.07;;;3.00;;
33427;SDS011;19769;48.150;16.306;2022-08-21T14:07:02;3.42;;;2.80;;
33427;SDS011;19769;48.150;16.306;2022-08-21T14:11:54;2.83;;;2.50;;
33427;SDS011;19769;48.150;16.306;2022-08-21T14:14:25;3.67;;;2.83;;
33427;SDS011;19769;48.150;16.306;2022-08-21T14:17:03;4.97;;;3.30;;
33427;SDS011;19769;48.150;16.306;2022-08-21T14:22:21;3.78;;;2.75;;
33427;SDS011;19769;48.150;16.306;2022-08-21T14:24:48;5.75;;;3.03;;
33427;SDS011;19769;48.150;16.306;2022-08-21T14:27:16;3.83;;;3.13;;
33427;SDS011;19769;48.150;16.306;2022-08-21T14:29:43;4.07;;;3.00;;
33427;SDS011;19769;48.150;16.306;2022-08-21T14:32:20;5.70;;;2.90;;
33427;SDS011;19769;48.150;16.306;2022-08-21T14:34:48;4.15;;;2.92;;
33427;SDS011;19769;48.150;16.306;2022-08-21T14:37:14;5.10;;;2.92;;
33427;SDS011;19769;48.150;16.306;2022-08-21T14:39:40;3.80;;;2.50;;
33427;SDS011;19769;48.150;16.306;2022-08-21T14:42:06;3.55;;;2.80;;
33427;SDS011;19769;48.150;16.306;2022-08-21T14:44:33;4.28;;;2.70;;
33427;SDS011;19769;48.150;16.306;2022-08-21T14:46:59;4.05;;;3.17;;
33427;SDS011;19769;48.150;16.306;2022-08-21T14:49:26;4.55;;;3.00;;
33427;SDS011;19769;48.150;16.306;2022-08-21T14:51:53;5.63;;;4.00;;
33427;SDS011;19769;48.150;16.306;2022-08-21T14:54:22;3.53;;;2.90;;
33427;SDS011;19769;48.150;16.306;2022-08-21T14:56:49;4.32;;;3.13;;
33427;SDS011;19769;48.150;16.306;2022-08-21T14:59:15;3.50;;;3.00;;
33427;SDS011;19769;48.150;16.306;2022-08-21T15:01:42;4.05;;;2.85;;
33427;SDS011;19769;48.150;16.306;2022-08-21T15:04:08;3.50;;;3.10;;
33427;SDS011;19769;48.150;16.306;2022-08-21T15:06:34;4.75;;;3.00;;
33427;SDS011;19769;48.150;16.306;2022-08-21T15:09:00;4.07;;;2.75;;
33427;SDS011;19769;48.150;16.306;2022-08-21T15:11:29;3.90;;;2.95;;
33427;SDS011;19769;48.150;16.306;2022-08-21T15:13:56;4.85;;;2.92;;
33427;SDS011;19769;48.150;16.306;2022-08-21T15:16:24;4.82;;;3.83;;
33427;SDS011;19769;48.150;16.306;2022-08-21T15:18:50;3.72;;;3.30;;
33427;SDS011;19769;48.150;16.306;2022-08-21T15:21:16;3.92;;;3.10;;
33427;SDS011;19769;48.150;16.306;2022-08-21T15:23:42;5.05;;;3.10;;
33427;SDS011;19769;48.150;16.306;2022-08-21T15:26:08;3.70;;;3.13;;
33427;SDS011;19769;48.150;16.306;2022-08-21T15:28:35;3.92;;;3.40;;
33427;SDS011;19769;48.150;16.306;2022-08-21T15:31:03;3.65;;;3.15;;
33427;SDS011;19769;48.150;16.306;2022-08-21T15:33:29;4.95;;;3.17;;
33427;SDS011;19769;48.150;16.306;2022-08-21T15:35:55;4.40;;;3.40;;
33427;SDS011;19769;48.150;16.306;2022-08-21T15:38:22;4.75;;;3.40;;
33427;SDS011;19769;48.150;16.306;2022-08-21T15:40:48;4.45;;;3.35;;
33427;SDS011;19769;48.150;16.306;2022-08-21T15:43:23;4.32;;;3.47;;
33427;SDS011;19769;48.150;16.306;2022-08-21T15:45:54;4.78;;;3.28;;
33427;SDS011;19769;48.150;16.306;2022-08-21T15:48:20;5.65;;;3.10;;
33427;SDS011;19769;48.150;16.306;2022-08-21T15:50:46;3.47;;;3.15;;
33427;SDS011;19769;48.150;16.306;2022-08-21T15:53:12;4.45;;;3.60;;
33427;SDS011;19769;48.150;16.306;2022-08-21T15:55:38;4.32;;;3.38;;
33427;SDS011;19769;48.150;16.306;2022-08-21T15:58:05;4.38;;;3.40;;
33427;SDS011;19769;48.150;16.306;2022-08-21T16:00:33;3.55;;;3.20;;
33427;SDS011;19769;48.150;16.306;2022-08-21T16:03:00;5.15;;;3.65;;
33427;SDS011;19769;48.150;16.306;2022-08-21T16:05:28;4.95;;;3.40;;
33427;SDS011;19769;48.150;16.306;2022-08-21T16:07:55;3.67;;;3.20;;
33427;SDS011;19769;48.150;16.306;2022-08-21T16:10:23;4.55;;;3.55;;
33427;SDS011;19769;48.150;16.306;2022-08-21T16:12:57;5.60;;;3.80;;
33427;SDS011;19769;48.150;16.306;2022-08-21T16:15:25;6.45;;;5.30;;
33427;SDS011;19769;48.150;16.306;2022-08-21T16:17:51;5.82;;;4.30;;
33427;SDS011;19769;48.150;16.306;2022-08-21T16:20:19;4.65;;;3.60;;
33427;SDS011;19769;48.150;16.306;2022-08-21T16:22:46;5.95;;;3.42;;
33427;SDS011;19769;48.150;16.306;2022-08-21T16:25:13;5.47;;;3.42;;